createdAt,value
2023-04-21T00:00:13.506Z,99273.88
2023-04-21T00:02:46.705Z,99274.03
2023-04-21T00:05:18.927Z,99274.03
2023-04-21T00:07:50.754Z,99273.22
2023-04-21T00:10:22.544Z,99271.91
2023-04-21T00:12:54.252Z,99258.88
2023-04-21T00:15:25.995Z,99258.88
2023-04-21T00:17:59.023Z,99265.28
2023-04-21T00:20:31.615Z,99260.84
2023-04-21T00:23:04.310Z,99268.25
2023-04-21T00:25:36.080Z,99276.81
2023-04-21T00:28:09.750Z,99259.50
2023-04-21T00:30:43.555Z,99257.03
2023-04-21T00:33:15.288Z,99262.81
2023-04-21T00:35:47.220Z,99268.06
2023-04-21T00:38:18.896Z,99256.69
2023-04-21T00:40:50.718Z,99266.25
2023-04-21T00:43:22.501Z,99263.47
2023-04-21T00:46:00.251Z,99263.63
2023-04-21T00:48:31.930Z,99265.44
2023-04-21T00:51:04.320Z,99258.69
2023-04-21T00:53:36.453Z,99254.06
2023-04-21T00:56:08.309Z,99257.03
2023-04-21T00:58:45.708Z,99260.81
2023-04-21T01:01:17.577Z,99256.69
2023-04-21T01:03:50.598Z,99256.19
2023-04-21T01:06:22.523Z,99264.25
2023-04-21T01:08:55.483Z,99263.75
2023-04-21T01:11:27.454Z,99262.91
2023-04-21T01:13:59.120Z,99260.28
2023-04-21T01:16:32.908Z,99260.44
2023-04-21T01:19:05.998Z,99260.78
2023-04-21T01:21:41.868Z,99255.66
2023-04-21T01:24:13.481Z,99254.97
2023-04-21T01:26:49.252Z,99251.69
2023-04-21T01:29:21.083Z,99254.81
2023-04-21T01:31:52.881Z,99254.16
2023-04-21T01:34:24.595Z,99259.41
2023-04-21T01:36:56.348Z,99250.00
2023-04-21T01:39:28.513Z,99257.09
2023-04-21T01:42:00.816Z,99257.09
2023-04-21T01:44:32.951Z,99252.97
2023-04-21T01:47:07.467Z,99258.41
2023-04-21T01:49:39.175Z,99257.56
2023-04-21T01:52:11.441Z,99255.91
2023-04-21T01:54:43.347Z,99255.09
2023-04-21T01:57:15.656Z,99256.25
2023-04-21T01:59:48.348Z,99247.03
2023-04-21T02:02:20.278Z,99246.50
2023-04-21T02:04:53.041Z,99247.28
2023-04-21T02:07:26.040Z,99247.59
2023-04-21T02:09:58.608Z,99252.19
2023-04-21T02:12:30.312Z,99247.41
2023-04-21T02:15:02.087Z,99244.44
2023-04-21T02:17:34.050Z,99251.66
2023-04-21T02:20:07.236Z,99250.00
2023-04-21T02:22:39.447Z,99252.78
2023-04-21T02:25:11.303Z,99258.03
2023-04-21T02:27:44.084Z,99251.25
2023-04-21T02:30:15.847Z,99254.88
2023-04-21T02:32:47.703Z,99249.25
2023-04-21T02:35:19.550Z,99259.78
2023-04-21T02:37:51.308Z,99252.56
2023-04-21T02:40:23.131Z,99256.03
2023-04-21T02:42:58.042Z,99254.50
2023-04-21T02:45:30.543Z,99252.03
2023-04-21T02:48:02.396Z,99253.03
2023-04-21T02:50:35.479Z,99257.47
2023-04-21T02:53:07.627Z,99254.16
2023-04-21T02:55:39.370Z,99255.13
2023-04-21T02:58:11.214Z,99250.84
2023-04-21T03:00:42.956Z,99252.66
2023-04-21T03:03:16.004Z,99252.84
2023-04-21T03:05:47.925Z,99234.56
2023-04-21T03:08:19.697Z,99249.53
2023-04-21T03:10:51.861Z,99239.81
2023-04-21T03:13:27.003Z,99237.06
2023-04-21T03:15:58.732Z,99245.78
2023-04-21T03:18:30.525Z,99236.22
2023-04-21T03:21:03.968Z,99243.28
2023-04-21T03:23:36.092Z,99242.59
2023-04-21T03:26:08.750Z,99238.50
2023-04-21T03:28:41.892Z,99240.44
2023-04-21T03:31:16.429Z,99247.84
2023-04-21T03:33:48.304Z,99244.81
2023-04-21T03:36:21.247Z,99249.72
2023-04-21T03:38:52.951Z,99239.53
2023-04-21T03:41:27.912Z,99242.63
2023-04-21T03:43:59.648Z,99252.78
2023-04-21T03:46:31.462Z,99242.19
2023-04-21T03:49:04.963Z,99245.28
2023-04-21T03:51:36.666Z,99241.97
2023-04-21T03:54:08.579Z,99241.97
2023-04-21T03:56:43.009Z,99249.16
2023-04-21T03:59:14.689Z,99247.56
2023-04-21T04:01:46.427Z,99252.13
2023-04-21T04:04:18.517Z,99252.94
2023-04-21T04:06:50.577Z,99252.13
2023-04-21T04:09:22.768Z,99251.44
2023-04-21T04:11:54.485Z,99253.09
2023-04-21T04:14:33.548Z,99261.13
2023-04-21T04:17:08.197Z,99259.03
2023-04-21T04:19:39.777Z,99251.16
2023-04-21T04:22:14.624Z,99261.50
2023-04-21T04:24:46.187Z,99256.22
2023-04-21T04:27:18.049Z,99261.50
2023-04-21T04:29:51.022Z,99254.44
2023-04-21T04:32:22.767Z,99256.78
2023-04-21T04:34:58.983Z,99258.78
2023-04-21T04:37:36.834Z,99267.56
2023-04-21T04:40:12.331Z,99257.09
2023-04-21T04:42:45.583Z,99261.44
2023-04-21T04:45:17.390Z,99264.94
2023-04-21T04:47:52.114Z,99261.75
2023-04-21T04:50:24.873Z,99255.94
2023-04-21T04:52:58.568Z,99255.19
2023-04-21T04:55:30.292Z,99256.09
2023-04-21T04:58:02.198Z,99246.44
2023-04-21T05:00:34.179Z,99249.59
2023-04-21T05:03:06.221Z,99247.19
2023-04-21T05:05:38.104Z,99259.72
2023-04-21T05:08:11.465Z,99253.13
2023-04-21T05:10:46.058Z,99256.59
2023-04-21T05:13:18.248Z,99256.53
2023-04-21T05:15:49.953Z,99257.84
2023-04-21T05:18:21.639Z,99262.03
2023-04-21T05:20:53.485Z,99261.94
2023-04-21T05:23:25.328Z,99262.81
2023-04-21T05:25:57.111Z,99260.66
2023-04-21T05:28:30.178Z,99262.94
2023-04-21T05:31:01.946Z,99273.44
2023-04-21T05:33:33.758Z,99275.28
2023-04-21T05:36:10.539Z,99266.78
2023-04-21T05:38:42.293Z,99274.41
2023-04-21T05:41:14.967Z,99276.06
2023-04-21T05:43:47.612Z,99267.69
2023-04-21T05:46:19.429Z,99270.97
2023-04-21T05:48:51.193Z,99265.38
2023-04-21T05:51:25.035Z,99255.25
2023-04-21T05:53:56.760Z,99250.50
2023-04-21T05:56:28.530Z,99247.63
2023-04-21T05:59:00.378Z,99260.00
2023-04-21T06:01:32.201Z,99261.59
2023-04-21T06:04:07.129Z,99254.91
2023-04-21T06:06:39.072Z,99258.16
2023-04-21T06:09:10.970Z,99264.50
2023-04-21T06:11:42.757Z,99266.63
2023-04-21T06:14:16.945Z,99258.72
2023-04-21T06:16:48.645Z,99265.03
2023-04-21T06:19:20.541Z,99253.81
2023-04-21T06:21:52.386Z,99263.72
2023-04-21T06:24:26.919Z,99259.66
2023-04-21T06:26:58.657Z,99263.91
2023-04-21T06:29:30.409Z,99254.25
2023-04-21T06:32:02.213Z,99251.59
2023-04-21T06:34:34.122Z,99249.97
2023-04-21T06:37:07.117Z,99251.34
2023-04-21T06:39:38.791Z,99264.28
2023-04-21T06:42:10.671Z,99259.81
2023-04-21T06:44:48.818Z,99265.13
2023-04-21T06:47:22.377Z,99261.16
2023-04-21T06:49:54.162Z,99259.31
2023-04-21T06:52:26.193Z,99259.38
2023-04-21T06:54:57.994Z,99251.97
2023-04-21T06:57:29.811Z,99248.28
2023-04-21T07:00:01.877Z,99256.88
2023-04-21T07:02:33.823Z,99261.66
2023-04-21T07:05:08.115Z,99264.38
2023-04-21T07:07:39.780Z,99258.94
2023-04-21T07:10:11.514Z,99251.31
2023-04-21T07:12:43.224Z,99253.16
2023-04-21T07:15:14.960Z,99254.22
2023-04-21T07:17:47.008Z,99243.00
2023-04-21T07:20:19.062Z,99246.66
2023-04-21T07:22:50.887Z,99242.25
2023-04-21T07:25:22.621Z,99251.56
2023-04-21T07:27:54.442Z,99241.84
2023-04-21T07:30:26.439Z,99251.75
2023-04-21T07:32:58.468Z,99254.47
2023-04-21T07:35:30.193Z,99248.50
2023-04-21T07:38:04.707Z,99242.94
2023-04-21T07:40:36.256Z,99240.59
2023-04-21T07:43:10.120Z,99245.09
2023-04-21T07:45:41.832Z,99236.75
2023-04-21T07:48:13.671Z,99239.50
2023-04-21T07:50:45.432Z,99235.63
2023-04-21T07:53:17.205Z,99243.44
2023-04-21T07:55:48.956Z,99234.69
2023-04-21T07:58:22.168Z,99235.63
2023-04-21T08:00:53.923Z,99236.94
2023-04-21T08:03:26.222Z,99233.97
2023-04-21T08:05:58.375Z,99237.63
2023-04-21T08:08:31.939Z,99230.72
2023-04-21T08:11:04.252Z,99230.84
2023-04-21T08:13:36.508Z,99232.72
2023-04-21T08:16:08.583Z,99231.78
2023-04-21T08:18:40.364Z,99227.19
2023-04-21T08:21:12.171Z,99225.63
2023-04-21T08:23:46.575Z,99222.91
2023-04-21T08:26:21.008Z,99229.44
2023-04-21T08:28:53.090Z,99225.34
2023-04-21T08:31:24.932Z,99217.19
2023-04-21T08:34:01.823Z,99213.44
2023-04-21T08:36:34.936Z,99214.75
2023-04-21T08:39:07.135Z,99204.00
2023-04-21T08:41:41.733Z,99212.28
2023-04-21T08:44:13.606Z,99209.03
2023-04-21T08:46:50.436Z,99209.81
2023-04-21T08:49:29.328Z,99205.88
2023-04-21T08:52:01.096Z,99207.81
2023-04-21T08:54:33.426Z,99204.31
2023-04-21T08:57:14.773Z,99204.53
2023-04-21T08:59:47.856Z,99203.44
2023-04-21T09:02:19.846Z,99214.09
2023-04-21T09:04:52.554Z,99204.41
2023-04-21T09:07:36.515Z,99205.59
2023-04-21T09:10:08.651Z,99196.22
2023-04-21T09:12:40.996Z,99205.31
2023-04-21T09:15:12.940Z,99201.78
2023-04-21T09:17:45.877Z,99198.19
2023-04-21T09:20:20.625Z,99209.53
2023-04-21T09:22:53.266Z,99197.97
2023-04-21T09:25:25.006Z,99201.09
2023-04-21T09:27:57.193Z,99199.69
2023-04-21T09:30:38.014Z,99198.28
2023-04-21T09:33:27.911Z,99183.63
2023-04-21T09:36:05.539Z,99186.47
2023-04-21T09:38:37.523Z,99182.81
2023-04-21T09:41:09.234Z,99187.66
2023-04-21T09:43:40.953Z,99173.56
2023-04-21T09:46:16.227Z,99180.56
2023-04-21T09:48:48.530Z,99181.84
2023-04-21T09:51:36.901Z,99175.56
2023-04-21T09:56:56.066Z,99188.50
2023-04-21T09:59:47.791Z,99168.88
2023-04-21T10:02:20.797Z,99176.72
2023-04-21T10:04:53.019Z,99164.19
2023-04-21T10:07:24.929Z,99174.00
2023-04-21T10:09:59.322Z,99170.91
2023-04-21T10:12:30.953Z,99176.44
2023-04-21T10:15:05.460Z,99172.63
2023-04-21T10:17:37.465Z,99178.94
2023-04-21T10:20:09.795Z,99165.25
2023-04-21T10:22:42.941Z,99162.81
2023-04-21T10:25:14.711Z,99159.75
2023-04-21T10:27:46.418Z,99161.75
2023-04-21T10:30:28.860Z,99152.31
2023-04-21T10:33:05.514Z,99149.81
2023-04-21T10:36:03.232Z,99136.53
2023-04-21T10:38:44.625Z,99155.28
2023-04-21T10:41:30.515Z,99144.72
2023-04-21T10:44:13.389Z,99141.94
2023-04-21T10:46:49.698Z,99151.69
2023-04-21T10:49:23.720Z,99145.34
2023-04-21T10:52:04.034Z,99148.50
2023-04-21T10:54:48.065Z,99148.28
2023-04-21T10:57:20.700Z,99139.19
2023-04-21T10:59:53.221Z,99140.00
2023-04-21T11:02:25.158Z,99151.78
2023-04-21T11:04:57.437Z,99138.69
2023-04-21T11:07:29.510Z,99152.91
2023-04-21T11:10:04.323Z,99144.13
2023-04-21T11:12:40.411Z,99139.69
2023-04-21T11:15:14.408Z,99137.69
2023-04-21T11:17:47.182Z,99143.19
2023-04-21T11:20:19.241Z,99134.22
2023-04-21T11:22:53.324Z,99123.34
2023-04-21T11:25:27.623Z,99126.66
2023-04-21T11:28:04.326Z,99128.22
2023-04-21T11:30:38.927Z,99127.63
2023-04-21T11:33:10.762Z,99129.06
2023-04-21T11:35:42.638Z,99120.81
2023-04-21T11:38:15.977Z,99135.38
2023-04-21T11:40:48.800Z,99133.25
2023-04-21T11:43:21.634Z,99122.38
2023-04-21T11:45:53.399Z,99118.88
2023-04-21T11:48:30.036Z,99146.78
2023-04-21T11:51:01.876Z,99122.84
2023-04-21T11:53:33.684Z,99122.25
2023-04-21T11:56:08.237Z,99126.63
2023-04-21T11:58:40.462Z,99125.09
2023-04-21T12:01:15.813Z,99116.75
2023-04-21T12:03:52.350Z,99114.91
2023-04-21T12:06:28.785Z,99120.59
2023-04-21T12:09:02.698Z,99115.16
2023-04-21T12:11:37.703Z,99106.63
2023-04-21T12:14:09.406Z,99116.53
2023-04-21T12:16:41.354Z,99112.44
2023-04-21T12:19:42.671Z,99101.25
2023-04-21T12:22:18.595Z,99107.06
2023-04-21T12:24:50.397Z,99113.88
2023-04-21T12:27:22.169Z,99107.53
2023-04-21T12:29:54.207Z,99115.56
2023-04-21T12:32:26.323Z,99116.53
2023-04-21T12:35:00.632Z,99109.63
2023-04-21T12:37:32.318Z,99105.25
2023-04-21T12:40:06.344Z,99099.78
2023-04-21T12:42:38.558Z,99104.69
2023-04-21T12:45:10.735Z,99096.31
2023-04-21T12:47:44.815Z,99105.28
2023-04-21T12:50:18.805Z,99093.19
2023-04-21T12:52:51.604Z,99097.69
2023-04-21T12:55:23.556Z,99095.66
2023-04-21T12:57:57.460Z,99102.47
2023-04-21T13:00:33.342Z,99079.63
2023-04-21T13:03:05.266Z,99081.06
2023-04-21T13:05:37.148Z,99074.81
2023-04-21T13:08:08.905Z,99080.66
2023-04-21T13:10:40.756Z,99081.25
2023-04-21T13:13:12.567Z,99079.78
2023-04-21T13:15:44.619Z,99066.22
2023-04-21T13:18:16.376Z,99061.78
2023-04-21T13:20:48.164Z,99074.13
2023-04-21T13:23:19.893Z,99087.41
2023-04-21T13:25:52.911Z,99061.78
2023-04-21T13:28:27.834Z,99056.47
2023-04-21T13:30:59.645Z,99063.63
2023-04-21T13:33:34.985Z,99061.00
2023-04-21T13:36:07.252Z,99060.91
2023-04-21T13:38:40.630Z,99057.53
2023-04-21T13:41:12.439Z,99049.25
2023-04-21T13:43:44.240Z,99058.94
2023-04-21T13:46:16.123Z,99055.19
2023-04-21T13:48:48.311Z,99041.06
2023-04-21T13:51:23.463Z,99038.72
2023-04-21T13:53:55.428Z,99038.28
2023-04-21T13:56:30.006Z,99038.28
2023-04-21T13:59:01.837Z,99033.13
2023-04-21T14:01:33.670Z,99032.56
2023-04-21T14:04:05.814Z,99038.66
2023-04-21T14:06:37.682Z,99020.06
2023-04-21T14:09:09.630Z,99045.63
2023-04-21T14:11:41.500Z,99042.59
2023-04-21T14:16:49.420Z,99032.72
2023-04-21T14:19:21.349Z,99024.00
2023-04-21T14:21:53.044Z,99019.97
2023-04-21T14:24:28.705Z,99027.81
2023-04-21T14:27:01.190Z,99029.56
2023-04-21T14:29:35.718Z,99023.81
2023-04-21T14:32:08.933Z,99008.34
2023-04-21T14:34:40.683Z,99008.56
2023-04-21T14:37:12.599Z,99008.88
2023-04-21T14:39:44.322Z,99015.66
2023-04-21T14:42:19.176Z,98998.97
2023-04-21T14:44:51.058Z,98993.03
2023-04-21T14:47:23.034Z,99013.56
2023-04-21T14:49:56.087Z,98998.69
2023-04-21T14:52:27.886Z,99001.25
2023-04-21T14:55:03.623Z,98997.19
2023-04-21T14:57:35.356Z,98991.91
2023-04-21T15:00:07.881Z,98989.84
2023-04-21T15:02:39.816Z,98994.41
2023-04-21T15:05:11.792Z,98986.34
2023-04-21T15:07:43.470Z,98989.81
2023-04-21T15:10:15.335Z,98988.06
2023-04-21T15:12:47.229Z,99000.88
2023-04-21T15:15:19.127Z,98999.72
2023-04-21T15:17:50.908Z,98994.03
2023-04-21T15:20:32.716Z,98991.09
2023-04-21T15:23:13.019Z,98987.97
2023-04-21T15:25:44.800Z,98990.09
2023-04-21T15:28:16.501Z,98987.03
2023-04-21T15:30:48.279Z,98989.13
2023-04-21T15:33:20.032Z,98984.94
2023-04-21T15:35:52.353Z,98993.44
2023-04-21T15:38:26.350Z,98984.16
2023-04-21T15:41:01.007Z,98983.91
2023-04-21T15:43:33.393Z,98974.81
2023-04-21T15:46:13.048Z,98975.41
2023-04-21T15:48:45.052Z,98965.63
2023-04-21T15:51:18.413Z,98969.25
2023-04-21T15:53:53.261Z,98971.53
2023-04-21T15:56:25.052Z,98975.75
2023-04-21T15:58:57.194Z,98964.81
2023-04-21T16:01:29.021Z,98962.84
2023-04-21T16:04:00.955Z,98965.50
2023-04-21T16:06:33.305Z,98969.22
2023-04-21T16:09:05.420Z,98965.97
2023-04-21T16:11:37.367Z,98967.81
2023-04-21T16:14:09.600Z,98957.22
2023-04-21T16:16:41.400Z,98956.88
2023-04-21T16:19:13.416Z,98960.84
2023-04-21T16:21:45.248Z,98947.59
2023-04-21T16:24:17.199Z,98952.69
2023-04-21T16:26:49.374Z,98950.47
2023-04-21T16:29:21.165Z,98945.25
2023-04-21T16:31:52.991Z,98955.63
2023-04-21T16:34:24.988Z,98949.44
2023-04-21T16:36:56.778Z,98952.94
2023-04-21T16:39:28.543Z,98943.16
2023-04-21T16:42:00.335Z,98948.13
2023-04-21T16:44:32.122Z,98937.44
2023-04-21T16:47:03.926Z,98950.34
2023-04-21T16:49:35.727Z,98947.31
2023-04-21T16:52:07.475Z,98942.41
2023-04-21T16:54:39.964Z,98945.50
2023-04-21T16:57:12.189Z,98940.88
2023-04-21T16:59:44.044Z,98942.81
2023-04-21T17:02:15.764Z,98946.19
2023-04-21T17:04:47.577Z,98945.03
2023-04-21T17:07:21.423Z,98941.97
2023-04-21T17:09:53.284Z,98935.91
2023-04-21T17:12:25.072Z,98941.72
2023-04-21T17:14:57.118Z,98945.41
2023-04-21T17:17:39.970Z,98939.34
2023-04-21T17:20:13.986Z,98936.75
2023-04-21T17:22:50.408Z,98939.31
2023-04-21T17:25:22.236Z,98940.81
2023-04-21T17:27:54.122Z,98939.38
2023-04-21T17:30:25.910Z,98940.88
2023-04-21T17:33:08.335Z,98936.84
2023-04-21T17:36:02.137Z,98941.56
2023-04-21T17:38:35.289Z,98934.66
2023-04-21T17:41:07.749Z,98938.72
2023-04-21T17:43:39.614Z,98933.78
2023-04-21T17:46:11.641Z,98930.97
2023-04-21T17:48:43.472Z,98938.63
2023-04-21T17:51:15.309Z,98940.31
2023-04-21T17:53:47.029Z,98937.50
2023-04-21T17:56:18.964Z,98937.56
2023-04-21T17:58:50.811Z,98939.03
2023-04-21T18:01:22.686Z,98945.25
2023-04-21T18:03:57.110Z,98940.81
2023-04-21T18:06:31.942Z,98945.19
2023-04-21T18:09:07.287Z,98942.16
2023-04-21T18:11:39.175Z,98953.25
2023-04-21T18:14:11.034Z,98953.09
2023-04-21T18:16:42.804Z,98957.84
2023-04-21T18:19:14.639Z,98952.59
2023-04-21T18:21:46.593Z,98958.34
2023-04-21T18:24:18.462Z,98957.97
2023-04-21T18:26:51.375Z,98955.16
2023-04-21T18:29:24.348Z,98952.09
2023-04-21T18:31:56.353Z,98960.53
2023-04-21T18:34:28.161Z,98969.78
2023-04-21T18:36:59.972Z,98965.09
2023-04-21T18:39:32.717Z,98977.66
2023-04-21T18:42:04.571Z,98973.41
2023-04-21T18:44:39.477Z,98969.16
2023-04-21T18:47:12.181Z,98972.88
2023-04-21T18:49:45.265Z,98969.84
2023-04-21T18:52:17.086Z,98961.88
2023-04-21T18:54:48.789Z,98971.75
2023-04-21T18:57:22.493Z,98971.59
2023-04-21T18:59:54.362Z,98976.75
2023-04-21T19:02:26.342Z,98973.66
2023-04-21T19:04:58.675Z,98971.44
2023-04-21T19:07:30.358Z,98971.06
2023-04-21T19:10:02.129Z,98977.84
2023-04-21T19:12:34.274Z,98975.00
2023-04-21T19:15:06.784Z,98977.09
2023-04-21T19:17:39.705Z,98970.34
2023-04-21T19:20:12.168Z,98970.38
2023-04-21T19:22:44.370Z,98975.31
2023-04-21T19:25:17.528Z,98978.19
2023-04-21T19:27:49.283Z,98977.38
2023-04-21T19:30:21.797Z,98989.28
2023-04-21T19:32:54.908Z,98975.78
2023-04-21T19:35:27.645Z,98980.69
2023-04-21T19:38:00.623Z,98977.00
2023-04-21T19:40:32.576Z,98981.53
2023-04-21T19:43:04.995Z,98975.41
2023-04-21T19:45:37.861Z,98981.56
2023-04-21T19:48:12.619Z,98978.28
2023-04-21T19:50:44.528Z,98982.41
2023-04-21T19:53:16.288Z,98977.50
2023-04-21T19:55:51.837Z,98980.34
2023-04-21T19:58:38.703Z,98979.72
2023-04-21T20:01:12.270Z,98982.59
2023-04-21T20:03:44.222Z,98977.47
2023-04-21T20:06:16.540Z,98982.19
2023-04-21T20:08:48.396Z,98975.19
2023-04-21T20:11:21.044Z,98969.44
2023-04-21T20:13:52.746Z,98973.50
2023-04-21T20:16:26.554Z,98971.06
2023-04-21T20:18:58.871Z,98979.81
2023-04-21T20:21:30.543Z,98986.31
2023-04-21T20:24:02.493Z,98980.97
2023-04-21T20:26:34.664Z,98985.66
2023-04-21T20:29:06.349Z,98987.66
2023-04-21T20:31:38.824Z,98985.59
2023-04-21T20:34:10.590Z,98987.19
2023-04-21T20:36:42.396Z,98987.16
2023-04-21T20:39:14.369Z,98992.25
2023-04-21T20:41:46.209Z,98998.16
2023-04-21T20:44:23.141Z,98989.75
2023-04-21T20:46:55.058Z,98996.47
2023-04-21T20:49:27.157Z,98995.22
2023-04-21T20:51:59.853Z,98999.66
2023-04-21T20:54:34.518Z,98993.50
2023-04-21T20:57:07.684Z,98995.50
2023-04-21T20:59:39.830Z,98994.59
2023-04-21T21:02:11.872Z,99002.50
2023-04-21T21:04:47.687Z,99003.63
2023-04-21T21:07:19.405Z,99004.22
2023-04-21T21:09:51.083Z,99004.78
2023-04-21T21:12:22.999Z,99007.84
2023-04-21T21:14:54.673Z,99013.50
2023-04-21T21:17:26.477Z,99010.03
2023-04-21T21:19:58.729Z,99012.25
2023-04-21T21:22:30.559Z,99011.63
2023-04-21T21:25:02.410Z,99017.94
2023-04-21T21:27:34.362Z,99015.03
2023-04-21T21:30:07.810Z,99014.38
2023-04-21T21:32:39.849Z,99016.78
2023-04-21T21:35:12.081Z,99017.38
2023-04-21T21:37:43.920Z,99020.78
2023-04-21T21:40:15.832Z,99023.81
2023-04-21T21:42:50.884Z,99022.53
2023-04-21T21:45:23.103Z,99025.56
2023-04-21T21:47:56.047Z,99021.84
2023-04-21T21:50:27.894Z,99030.16
2023-04-21T21:52:59.643Z,99022.75
2023-04-21T21:55:35.784Z,99031.28
2023-04-21T21:58:09.304Z,99026.09
2023-04-21T22:00:43.816Z,99026.81
2023-04-21T22:03:15.706Z,99028.38
2023-04-21T22:05:48.497Z,99033.44
2023-04-21T22:08:20.285Z,99027.88
2023-04-21T22:10:52.015Z,99031.91
2023-04-21T22:13:23.855Z,99042.56
2023-04-21T22:15:59.584Z,99042.91
2023-04-21T22:18:31.313Z,99042.63
2023-04-21T22:21:03.035Z,99044.00
2023-04-21T22:23:34.746Z,99045.38
2023-04-21T22:26:06.837Z,99049.03
2023-04-21T22:28:38.563Z,99049.38
2023-04-21T22:31:10.570Z,99048.28
2023-04-21T22:33:42.380Z,99047.84
2023-04-21T22:36:20.148Z,99049.38
2023-04-21T22:38:52.254Z,99043.81
2023-04-21T22:44:26.964Z,99053.09
2023-04-21T22:46:58.724Z,99052.66
2023-04-21T22:49:33.041Z,99063.22
2023-04-21T22:52:04.804Z,99062.94
2023-04-21T22:57:33.291Z,99064.66
2023-04-21T23:00:09.692Z,99062.38
2023-04-21T23:02:41.478Z,99059.09
2023-04-21T23:05:14.064Z,99062.91
2023-04-21T23:07:47.776Z,99065.91
2023-04-21T23:10:19.515Z,99064.44
2023-04-21T23:12:51.268Z,99070.28
2023-04-21T23:15:23.194Z,99071.47
2023-04-21T23:17:56.956Z,99072.81
2023-04-21T23:20:28.759Z,99069.88
2023-04-21T23:23:00.606Z,99078.34
2023-04-21T23:25:32.339Z,99074.41
2023-04-21T23:28:04.100Z,99073.75
2023-04-21T23:30:35.829Z,99065.53
2023-04-21T23:33:07.697Z,99056.31
2023-04-21T23:35:45.791Z,99060.97
2023-04-21T23:38:17.516Z,99057.84
2023-04-21T23:40:49.170Z,99065.97
2023-04-21T23:43:22.832Z,99056.91
2023-04-21T23:45:54.824Z,99056.25
2023-04-21T23:48:27.811Z,99058.06
2023-04-21T23:50:59.605Z,99054.97
2023-04-21T23:53:31.406Z,99059.78
2023-04-21T23:56:03.586Z,99063.59
2023-04-21T23:58:35.248Z,99055.03
